Time;durP1;ratioP1;P1;durP2;ratioP2;P2;SDS_P1;SDS_P2;PMS_P1;PMS_P2;Temp;Humidity;BMP_temperature;BMP_pressure;BME280_temperature;BME280_humidity;BME280_pressure;Samples;Min_cycle;Max_cycle;Signal;HPM_P1;HPM_P2
2023/06/04 00:02:22;;;;;;;5.47;4.28;;;;;;;16.25;98.63;94750.59;5131980;27;20205;-70
2023/06/04 00:04:49;;;;;;;6.00;4.63;;;;;;;16.31;98.15;94751.06;5149139;27;20249;-70
2023/06/04 00:07:15;;;;;;;7.72;5.57;;;;;;;16.37;98.42;94748.84;5141439;27;20229;-70
2023/06/04 00:09:42;;;;;;;9.75;5.18;;;;;;;16.14;98.73;94746.81;5139867;27;20252;-70
2023/06/04 00:12:09;;;;;;;8.75;5.43;;;;;;;16.12;99.50;94746.41;5149210;27;20204;-71
2023/06/04 00:14:37;;;;;;;6.60;4.55;;;;;;;16.23;98.54;94741.94;5147455;27;20197;-72
2023/06/04 00:17:04;;;;;;;8.43;5.45;;;;;;;16.44;97.87;94743.50;5148584;27;20269;-71
2023/06/04 00:19:31;;;;;;;6.90;5.07;;;;;;;16.35;97.59;94743.75;5148734;27;20196;-71
2023/06/04 00:21:58;;;;;;;5.75;4.70;;;;;;;16.29;97.89;94737.75;5149088;27;20648;-71
2023/06/04 00:24:24;;;;;;;8.30;4.13;;;;;;;16.38;97.21;94744.97;5134317;27;20224;-71
2023/06/04 00:26:51;;;;;;;6.40;4.28;;;;;;;16.38;97.36;94740.28;5132913;27;20705;-71
2023/06/04 00:29:18;;;;;;;6.90;4.35;;;;;;;16.40;96.53;94739.94;5149363;27;20253;-72
2023/06/04 00:31:46;;;;;;;7.20;4.05;;;;;;;16.28;96.18;94738.91;5148901;27;20724;-71
2023/06/04 00:34:13;;;;;;;6.07;3.63;;;;;;;16.23;96.22;94731.03;5149048;27;20630;-71
2023/06/04 00:36:41;;;;;;;4.70;3.45;;;;;;;16.16;96.42;94730.88;5149238;27;20204;-71
2023/06/04 00:39:07;;;;;;;4.43;3.55;;;;;;;16.18;96.02;94731.28;5148907;27;20323;-71
2023/06/04 00:41:34;;;;;;;5.65;3.35;;;;;;;16.10;95.63;94735.06;5147596;27;20204;-71
2023/06/04 00:44:06;;;;;;;4.68;3.00;;;;;;;16.12;95.44;94732.75;5148630;27;20591;-71
2023/06/04 00:46:33;;;;;;;3.40;3.10;;;;;;;16.07;95.68;94734.97;5151723;27;20328;-71
2023/06/04 00:49:01;;;;;;;4.95;3.55;;;;;;;15.98;96.94;94730.53;5152133;27;20663;-71
2023/06/04 00:51:31;;;;;;;5.38;3.30;;;;;;;16.03;96.64;94729.44;5152449;27;20211;-71
2023/06/04 00:54:01;;;;;;;4.95;3.28;;;;;;;16.08;96.15;94731.88;5146458;27;20296;-71
2023/06/04 00:56:28;;;;;;;4.13;3.30;;;;;;;16.08;96.11;94725.63;5152878;27;20200;-71
2023/06/04 00:58:55;;;;;;;5.07;3.35;;;;;;;16.02;96.18;94725.09;5147059;27;20486;-71
2023/06/04 01:01:32;;;;;;;4.70;3.22;;;;;;;16.03;96.75;94732.16;5137005;27;20211;-71
2023/06/04 01:04:03;;;;;;;4.32;2.92;;;;;;;15.98;96.54;94727.00;5146238;27;20192;-71
2023/06/04 01:06:36;;;;;;;4.15;3.15;;;;;;;15.86;96.56;94724.38;5150783;27;20258;-71
2023/06/04 01:09:04;;;;;;;5.00;3.20;;;;;;;15.97;96.02;94737.13;5152512;27;20196;-71
2023/06/04 01:11:32;;;;;;;4.47;2.88;;;;;;;16.08;95.72;94739.28;5152056;27;20196;-71
2023/06/04 01:13:59;;;;;;;3.63;3.00;;;;;;;15.89;96.51;94729.13;5141226;27;20219;-71
2023/06/04 01:16:29;;;;;;;5.88;3.15;;;;;;;15.78;97.77;94739.03;5132545;27;20660;-71
2023/06/04 01:19:00;;;;;;;5.28;3.10;;;;;;;15.81;98.10;94733.66;5151859;27;20724;-71
2023/06/04 01:21:30;;;;;;;5.88;3.45;;;;;;;15.74;99.25;94732.69;5152455;27;20204;-71
2023/06/04 01:24:01;;;;;;;7.30;4.05;;;;;;;15.67;100.00;94732.56;5153270;27;20762;-71
2023/06/04 01:26:31;;;;;;;7.35;4.57;;;;;;;15.52;100.00;94728.69;5136089;27;20632;-71
2023/06/04 01:29:00;;;;;;;9.13;5.07;;;;;;;15.46;100.00;94732.84;5152947;27;20211;-71
2023/06/04 01:31:32;;;;;;;9.27;5.80;;;;;;;15.37;100.00;94719.38;5145270;27;20229;-71
2023/06/04 01:33:59;;;;;;;7.57;5.22;;;;;;;15.50;100.00;94750.88;5148105;27;20207;-71
2023/06/04 01:36:27;;;;;;;7.70;5.40;;;;;;;15.49;100.00;94745.78;5152003;27;20706;-71
2023/06/04 01:38:54;;;;;;;9.95;6.30;;;;;;;15.49;100.00;94743.84;5149417;27;20285;-71
2023/06/04 01:41:21;;;;;;;9.68;6.60;;;;;;;15.47;100.00;94750.81;5132811;27;20246;-71
2023/06/04 01:43:48;;;;;;;9.95;6.85;;;;;;;15.49;100.00;94752.03;5144662;27;20196;-71
2023/06/04 01:46:14;;;;;;;9.02;6.55;;;;;;;15.39;100.00;94760.78;5153033;27;20224;-71
2023/06/04 01:48:41;;;;;;;11.93;7.72;;;;;;;15.38;100.00;94752.94;5151781;27;20722;-70
2023/06/04 01:51:08;;;;;;;9.00;6.28;;;;;;;15.32;100.00;94757.88;5152852;27;20203;-71
2023/06/04 01:53:36;;;;;;;7.70;5.30;;;;;;;15.32;100.00;94759.81;5152479;27;20321;-71
2023/06/04 01:56:03;;;;;;;9.00;6.07;;;;;;;15.32;100.00;94760.59;5152299;27;20215;-71
2023/06/04 01:58:31;;;;;;;9.70;6.03;;;;;;;15.35;100.00;94759.91;5149797;27;20232;-71
2023/06/04 02:00:59;;;;;;;6.05;4.10;;;;;;;15.21;100.00;94749.44;5137912;27;20289;-71
2023/06/04 02:03:27;;;;;;;7.72;4.60;;;;;;;15.38;100.00;94767.38;5141467;27;20207;-71
2023/06/04 02:05:54;;;;;;;4.50;3.20;;;;;;;15.31;100.00;94764.47;5152505;27;20624;-71
2023/06/04 02:08:21;;;;;;;3.95;3.20;;;;;;;15.33;100.00;94762.19;5150605;27;20662;-71
2023/06/04 02:10:49;;;;;;;4.05;3.08;;;;;;;15.29;100.00;94767.59;5152620;27;20279;-71
2023/06/04 02:13:16;;;;;;;4.85;2.80;;;;;;;15.27;100.00;94766.34;5152184;27;20216;-71
2023/06/04 02:15:43;;;;;;;5.70;3.00;;;;;;;15.33;100.00;94766.84;5151419;27;20268;-70
2023/06/04 02:18:16;;;;;;;2.88;2.53;;;;;;;15.28;100.00;94771.44;5152073;27;20232;-70
2023/06/04 02:20:43;;;;;;;4.22;2.72;;;;;;;15.33;100.00;94772.31;5151915;27;20568;-71
2023/06/04 02:23:10;;;;;;;5.78;2.72;;;;;;;15.25;100.00;94771.34;5138902;27;20230;-71
2023/06/04 02:25:37;;;;;;;3.50;2.92;;;;;;;15.33;100.00;94778.56;5148979;27;20655;-70
2023/06/04 02:28:05;;;;;;;3.90;2.83;;;;;;;15.33;100.00;94784.03;5146452;27;20221;-70
2023/06/04 02:30:32;;;;;;;3.92;2.60;;;;;;;15.36;100.00;94783.31;5151615;27;20232;-70
2023/06/04 02:33:00;;;;;;;3.15;2.47;;;;;;;15.35;100.00;94791.84;5151832;27;20551;-70
2023/06/04 02:35:27;;;;;;;6.78;2.72;;;;;;;15.30;100.00;94790.22;5150821;27;20664;-70
2023/06/04 02:37:56;;;;;;;3.17;2.17;;;;;;;15.39;100.00;94801.72;5150661;27;20600;-71
2023/06/04 02:40:23;;;;;;;3.63;2.88;;;;;;;15.40;100.00;94792.41;5149480;27;20240;-70
2023/06/04 02:42:50;;;;;;;4.55;2.70;;;;;;;15.26;100.00;94790.13;5150949;27;20244;-70
2023/06/04 02:45:18;;;;;;;3.83;2.55;;;;;;;15.29;100.00;94797.59;5151187;27;20223;-70
2023/06/04 02:47:45;;;;;;;3.75;2.92;;;;;;;15.20;100.00;94799.69;5151517;27;20204;-70
2023/06/04 02:50:12;;;;;;;5.60;2.47;;;;;;;15.25;100.00;94798.66;5149435;27;20196;-70
2023/06/04 02:52:39;;;;;;;4.15;2.67;;;;;;;15.26;100.00;94802.97;5150496;27;20208;-70
2023/06/04 02:55:08;;;;;;;3.88;2.88;;;;;;;15.20;100.00;94798.91;5150966;27;20196;-70
2023/06/04 02:57:35;;;;;;;4.95;2.92;;;;;;;15.26;100.00;94805.69;5150690;27;20200;-70
2023/06/04 03:00:10;;;;;;;3.22;2.63;;;;;;;15.36;100.00;94805.16;5148212;27;20716;-70
2023/06/04 03:02:39;;;;;;;4.53;3.22;;;;;;;15.34;100.00;94807.44;5151322;27;20241;-70
2023/06/04 03:05:06;;;;;;;8.18;2.75;;;;;;;15.31;100.00;94813.59;5151019;27;20257;-71
2023/06/04 03:07:33;;;;;;;3.28;2.60;;;;;;;15.35;100.00;94817.22;5150166;27;20201;-71
2023/06/04 03:10:00;;;;;;;4.32;2.63;;;;;;;15.34;100.00;94807.44;5150050;27;20208;-71
2023/06/04 03:12:26;;;;;;;3.53;2.53;;;;;;;15.35;100.00;94813.69;5144125;27;20283;-71
2023/06/04 03:14:53;;;;;;;6.15;2.60;;;;;;;15.32;100.00;94814.41;5135374;27;20276;-70
2023/06/04 03:17:20;;;;;;;3.30;2.42;;;;;;;15.30;100.00;94809.31;5151096;27;20261;-71
2023/06/04 03:19:48;;;;;;;3.15;2.50;;;;;;;15.31;100.00;94819.06;5150526;27;20294;-71
2023/06/04 03:22:15;;;;;;;4.15;2.50;;;;;;;15.30;100.00;94812.03;5151403;27;20204;-71
2023/06/04 03:24:42;;;;;;;4.25;2.95;;;;;;;15.23;100.00;94806.41;5147325;27;20694;-70
2023/06/04 03:27:11;;;;;;;3.92;2.83;;;;;;;15.32;100.00;94815.19;5137276;27;20749;-71
2023/06/04 03:29:38;;;;;;;4.75;2.70;;;;;;;15.39;100.00;94817.31;5150793;27;20667;-71
2023/06/04 03:32:06;;;;;;;4.43;3.05;;;;;;;15.24;100.00;94816.97;5150878;27;20385;-70
2023/06/04 03:34:32;;;;;;;3.50;2.80;;;;;;;15.21;100.00;94825.06;5145106;27;20584;-70
2023/06/04 03:37:01;;;;;;;3.55;2.60;;;;;;;15.20;100.00;94828.94;5150819;27;20264;-71
2023/06/04 03:39:27;;;;;;;3.90;2.65;;;;;;;15.16;100.00;94831.59;5150011;27;20232;-71
2023/06/04 03:41:54;;;;;;;4.53;2.83;;;;;;;15.10;100.00;94841.16;5137498;27;20193;-71
2023/06/04 03:44:22;;;;;;;5.35;2.92;;;;;;;15.14;100.00;94833.06;5147228;27;20223;-71
2023/06/04 03:46:49;;;;;;;3.45;3.05;;;;;;;15.24;100.00;94832.53;5150559;27;20236;-71
2023/06/04 03:49:17;;;;;;;4.38;3.28;;;;;;;15.24;100.00;94824.34;5150456;27;20208;-71
2023/06/04 03:51:44;;;;;;;6.40;3.40;;;;;;;15.24;100.00;94840.72;5150564;27;20196;-70
2023/06/04 03:54:16;;;;;;;5.65;3.15;;;;;;;15.21;100.00;94830.50;5150621;27;20222;-70
2023/06/04 03:56:44;;;;;;;5.75;2.95;;;;;;;15.33;100.00;94838.63;5150145;27;20192;-70
2023/06/04 03:59:10;;;;;;;4.28;3.00;;;;;;;15.30;100.00;94833.88;5142689;27;20224;-70
2023/06/04 04:01:38;;;;;;;3.42;2.70;;;;;;;15.29;100.00;94841.28;5135696;27;20204;-70
2023/06/04 04:04:05;;;;;;;5.85;3.15;;;;;;;15.29;100.00;94838.53;5144017;27;20264;-70
2023/06/04 04:06:32;;;;;;;3.35;2.70;;;;;;;15.24;100.00;94841.53;5148220;27;20258;-70
2023/06/04 04:08:59;;;;;;;4.85;3.47;;;;;;;15.29;100.00;94848.66;5140982;27;20200;-70
2023/06/04 04:11:27;;;;;;;3.85;3.03;;;;;;;15.36;100.00;94843.38;5138295;27;20206;-70
2023/06/04 04:13:54;;;;;;;6.18;2.78;;;;;;;15.50;100.00;94854.66;5150627;27;20257;-70
2023/06/04 04:16:20;;;;;;;6.20;3.42;;;;;;;15.51;100.00;94850.78;5133330;27;20436;-70
2023/06/04 04:18:47;;;;;;;4.43;3.55;;;;;;;15.56;100.00;94847.81;5143344;27;20269;-70
2023/06/04 04:21:14;;;;;;;5.18;3.75;;;;;;;15.54;100.00;94854.75;5153031;27;20659;-71
2023/06/04 04:23:41;;;;;;;5.28;3.72;;;;;;;15.57;100.00;94849.41;5154401;27;20224;-71
2023/06/04 04:26:09;;;;;;;5.72;3.53;;;;;;;15.66;100.00;94851.94;5154277;27;20227;-71
2023/06/04 04:28:38;;;;;;;6.85;3.35;;;;;;;15.74;100.00;94848.22;5144957;27;20200;-71
2023/06/04 04:31:06;;;;;;;4.50;3.00;;;;;;;15.75;100.00;94849.81;5153878;27;20234;-71
2023/06/04 04:33:36;;;;;;;3.97;3.00;;;;;;;15.72;100.00;94849.72;5154201;27;20239;-71
2023/06/04 04:36:03;;;;;;;4.15;3.50;;;;;;;15.68;100.00;94857.06;5154276;27;20192;-71
2023/06/04 04:38:33;;;;;;;4.13;3.35;;;;;;;15.71;100.00;94853.63;5154031;27;20708;-70
2023/06/04 04:41:00;;;;;;;3.92;3.20;;;;;;;15.78;100.00;94853.78;5135909;27;20223;-70
2023/06/04 04:43:31;;;;;;;6.68;3.60;;;;;;;15.83;100.00;94845.31;5146404;27;20557;-71
2023/06/04 04:46:00;;;;;;;4.63;3.67;;;;;;;15.89;100.00;94841.16;5153829;27;20277;-71
2023/06/04 04:48:26;;;;;;;4.65;3.40;;;;;;;16.01;100.00;94846.50;5151156;27;20220;-71
2023/06/04 04:50:53;;;;;;;6.85;3.63;;;;;;;16.02;100.00;94850.81;5154179;27;20208;-71
2023/06/04 04:53:20;;;;;;;5.30;3.50;;;;;;;16.17;100.00;94847.25;5153999;27;20192;-71
2023/06/04 04:55:47;;;;;;;8.68;3.70;;;;;;;16.41;99.56;94853.59;5151377;27;20204;-70
2023/06/04 04:58:14;;;;;;;4.78;3.40;;;;;;;16.46;98.75;94856.06;5148445;27;20266;-70
2023/06/04 05:00:41;;;;;;;4.40;3.47;;;;;;;16.70;97.49;94844.84;5148108;27;20315;-70
2023/06/04 05:03:09;;;;;;;5.72;3.97;;;;;;;16.52;97.48;94854.63;5151983;27;20577;-70
2023/06/04 05:05:35;;;;;;;5.00;3.70;;;;;;;16.70;96.64;94847.59;5138340;27;20257;-70
2023/06/04 05:08:02;;;;;;;5.47;3.17;;;;;;;16.88;94.67;94848.72;5143883;27;20211;-70
2023/06/04 05:10:29;;;;;;;6.47;3.55;;;;;;;16.99;93.33;94846.97;5141617;27;20205;-70
2023/06/04 05:12:57;;;;;;;5.22;3.70;;;;;;;16.96;93.33;94842.22;5141992;27;20254;-71
2023/06/04 05:15:26;;;;;;;5.80;3.97;;;;;;;17.17;92.37;94852.78;5146265;27;20257;-70
2023/06/04 05:17:53;;;;;;;5.65;3.78;;;;;;;17.24;91.90;94852.13;5145726;27;20261;-71
2023/06/04 05:20:22;;;;;;;6.68;4.25;;;;;;;17.14;90.89;94863.66;5150882;27;20518;-72
2023/06/04 05:22:49;;;;;;;4.25;3.70;;;;;;;16.91;91.47;94858.16;5148152;27;20200;-74
2023/06/04 05:25:17;;;;;;;6.90;3.60;;;;;;;16.91;91.42;94861.69;5152394;27;20204;-73
2023/06/04 05:27:45;;;;;;;6.22;3.92;;;;;;;16.86;90.63;94856.50;5148300;27;20200;-75
2023/06/04 05:30:13;;;;;;;6.88;4.40;;;;;;;16.96;90.79;94860.59;5139967;27;20711;-72
2023/06/04 05:32:40;;;;;;;4.68;3.75;;;;;;;17.05;90.69;94861.97;5142445;27;20208;-72
2023/06/04 05:35:08;;;;;;;5.00;3.67;;;;;;;17.26;90.20;94860.75;5151794;27;20201;-73
2023/06/04 05:37:40;;;;;;;5.32;3.67;;;;;;;17.39;89.56;94864.91;5133296;27;20197;-73
2023/06/04 05:40:08;;;;;;;6.78;3.85;;;;;;;17.12;89.78;94860.50;5140008;27;20216;-74
2023/06/04 05:42:36;;;;;;;5.22;3.92;;;;;;;17.18;90.48;94864.53;5144410;27;20192;-73
2023/06/04 05:45:02;;;;;;;6.57;4.32;;;;;;;17.17;90.34;94868.44;5152703;27;20228;-75
2023/06/04 05:47:31;;;;;;;5.35;4.10;;;;;;;17.11;90.53;94858.91;5152322;27;20196;-75
2023/06/04 05:49:58;;;;;;;8.00;4.05;;;;;;;17.27;90.08;94881.50;5151911;27;20257;-74
2023/06/04 05:52:24;;;;;;;5.53;4.22;;;;;;;17.25;90.13;94875.59;5134772;27;20201;-74
2023/06/04 05:54:53;;;;;;;4.90;3.55;;;;;;;17.12;90.17;94879.66;5131700;27;20733;-75
2023/06/04 05:57:21;;;;;;;6.40;5.00;;;;;;;17.04;90.81;94882.28;5150272;27;20200;-74
2023/06/04 05:59:47;;;;;;;6.38;4.68;;;;;;;17.15;89.26;94874.25;5150603;27;20220;-72
2023/06/04 06:02:14;;;;;;;5.93;3.50;;;;;;;17.20;88.67;94886.88;5150265;27;20200;-72
2023/06/04 06:04:41;;;;;;;10.77;4.68;;;;;;;17.31;88.85;94891.38;5135964;27;20201;-72
2023/06/04 06:07:08;;;;;;;5.28;4.30;;;;;;;17.36;88.06;94895.75;5130219;27;20223;-72
2023/06/04 06:09:35;;;;;;;9.90;5.05;;;;;;;17.34;88.12;94896.13;5131179;27;20201;-73
2023/06/04 06:12:05;;;;;;;10.43;5.85;;;;;;;17.33;88.29;94896.50;5138289;27;20548;-74
2023/06/04 06:14:32;;;;;;;10.45;6.05;;;;;;;17.42;87.93;94891.56;5150063;27;20727;-73
2023/06/04 06:16:58;;;;;;;7.43;4.95;;;;;;;17.45;87.45;94893.59;5140406;27;20208;-72
2023/06/04 06:19:26;;;;;;;9.75;5.50;;;;;;;17.51;87.02;94905.81;5149204;27;20291;-72
2023/06/04 06:21:53;;;;;;;10.10;5.47;;;;;;;17.62;85.93;94895.84;5140655;27;20200;-72
2023/06/04 06:24:19;;;;;;;9.30;5.38;;;;;;;17.63;85.94;94897.44;5149841;27;20220;-73
2023/06/04 06:26:46;;;;;;;10.43;5.50;;;;;;;17.79;85.65;94893.78;5140218;27;20255;-73
2023/06/04 06:29:14;;;;;;;7.07;4.63;;;;;;;17.83;84.04;94889.94;5151163;27;20216;-73
2023/06/04 06:31:41;;;;;;;11.77;4.95;;;;;;;17.72;84.40;94899.94;5152075;27;20291;-73
2023/06/04 06:34:08;;;;;;;8.18;4.80;;;;;;;17.84;84.64;94904.44;5147483;27;20250;-75
2023/06/04 06:36:35;;;;;;;7.65;5.20;;;;;;;18.23;83.22;94897.59;5129890;27;20197;-73
2023/06/04 06:39:02;;;;;;;8.60;5.07;;;;;;;18.29;82.24;94890.66;5144565;27;20208;-72
2023/06/04 06:41:30;;;;;;;7.38;4.60;;;;;;;18.35;81.24;94896.59;5129954;27;20215;-72
2023/06/04 06:43:57;;;;;;;5.40;4.15;;;;;;;18.33;81.33;94896.19;5130930;27;20627;-73
2023/06/04 06:46:25;;;;;;;6.68;4.25;;;;;;;18.58;80.67;94893.81;5130899;27;20274;-72
2023/06/04 06:48:52;;;;;;;8.55;4.97;;;;;;;18.89;79.78;94896.16;5130808;27;20204;-73
2023/06/04 06:51:18;;;;;;;8.65;4.93;;;;;;;18.67;79.33;94897.06;5130424;27;20438;-72
2023/06/04 06:53:45;;;;;;;9.07;4.75;;;;;;;18.58;80.36;94896.53;5130575;27;20209;-73
2023/06/04 06:56:12;;;;;;;8.38;4.43;;;;;;;18.76;79.83;94908.56;5130518;27;20205;-73
2023/06/04 06:58:39;;;;;;;8.30;5.45;;;;;;;18.66;79.00;94909.22;5135044;27;20268;-73
2023/06/04 07:01:06;;;;;;;8.07;5.35;;;;;;;18.70;78.81;94910.06;5151021;27;20601;-73
2023/06/04 07:03:34;;;;;;;7.68;5.25;;;;;;;18.60;79.68;94905.19;5131088;27;20200;-73
2023/06/04 07:06:01;;;;;;;7.35;5.15;;;;;;;18.72;79.16;94902.25;5130219;27;20201;-73
2023/06/04 07:08:28;;;;;;;6.47;4.20;;;;;;;18.50;78.64;94905.81;5130580;27;20270;-72
2023/06/04 07:10:55;;;;;;;8.20;3.85;;;;;;;18.54;78.71;94917.66;5130469;27;20239;-72
2023/06/04 07:13:21;;;;;;;6.60;3.40;;;;;;;18.51;78.75;94912.91;5130226;27;20204;-70
2023/06/04 07:15:48;;;;;;;5.10;3.53;;;;;;;18.36;79.33;94922.88;5130263;27;20254;-73
2023/06/04 07:18:15;;;;;;;6.40;4.35;;;;;;;18.47;79.94;94930.09;5130183;27;20221;-71
2023/06/04 07:20:43;;;;;;;7.05;3.35;;;;;;;18.48;79.38;94920.69;5130329;27;20228;-71
2023/06/04 07:23:10;;;;;;;8.05;5.20;;;;;;;18.58;79.71;94918.50;5130100;27;20228;-71
2023/06/04 07:25:36;;;;;;;8.48;5.82;;;;;;;18.70;79.65;94929.28;5129808;27;20685;-76
2023/06/04 07:28:04;;;;;;;7.88;5.20;;;;;;;18.77;79.28;94921.13;5130055;27;20205;-68
2023/06/04 07:30:31;;;;;;;9.57;4.15;;;;;;;18.67;79.65;94946.47;5129926;27;20233;-71
2023/06/04 07:32:58;;;;;;;5.25;3.65;;;;;;;18.59;80.59;94925.56;5138493;27;20283;-72
2023/06/04 07:35:25;;;;;;;7.55;5.35;;;;;;;19.00;79.42;94924.53;5149857;27;20208;-71
2023/06/04 07:37:53;;;;;;;7.78;5.20;;;;;;;18.99;79.59;94928.47;5150362;27;20212;-71
2023/06/04 07:40:20;;;;;;;7.32;5.30;;;;;;;19.13;79.24;94927.84;5150205;27;20459;-70
2023/06/04 07:42:48;;;;;;;7.75;5.47;;;;;;;19.30;78.26;94934.69;5149875;27;20203;-70
2023/06/04 07:45:15;;;;;;;9.98;5.82;;;;;;;19.25;78.77;94930.34;5149641;27;20226;-70
2023/06/04 07:47:42;;;;;;;7.30;5.10;;;;;;;19.57;78.15;94933.44;5150344;27;20211;-69
2023/06/04 07:50:09;;;;;;;11.30;6.20;;;;;;;20.12;76.55;94939.06;5149821;27;20265;-70
2023/06/04 07:52:36;;;;;;;8.68;6.10;;;;;;;20.13;75.12;94935.94;5141754;27;20201;-70
2023/06/04 07:55:05;;;;;;;12.55;6.90;;;;;;;19.94;76.01;94944.44;5129169;27;20768;-70
2023/06/04 07:57:32;;;;;;;11.25;6.22;;;;;;;20.05;75.65;94950.03;5129457;27;20474;-71
2023/06/04 07:59:59;;;;;;;10.75;6.45;;;;;;;20.18;74.96;94949.34;5145133;27;20715;-72
2023/06/04 08:02:26;;;;;;;12.43;6.38;;;;;;;20.45;75.06;94947.22;5140110;27;20205;-72
2023/06/04 08:04:53;;;;;;;10.70;7.15;;;;;;;20.71;73.91;94948.16;5146361;27;20200;-73
2023/06/04 08:07:20;;;;;;;9.50;7.20;;;;;;;20.30;74.24;94948.25;5140492;27;20745;-72
2023/06/04 08:09:47;;;;;;;10.20;6.03;;;;;;;20.03;75.18;94953.16;5129809;27;20209;-72
2023/06/04 08:12:16;;;;;;;11.55;5.75;;;;;;;20.20;75.39;94957.22;5139783;27;20196;-70
2023/06/04 08:14:42;;;;;;;10.88;6.35;;;;;;;20.98;73.79;94944.00;5150306;27;20593;-71
2023/06/04 08:17:09;;;;;;;11.65;7.50;;;;;;;20.98;71.39;94946.75;5150534;27;20300;-71
2023/06/04 08:19:36;;;;;;;10.68;6.32;;;;;;;21.21;70.55;94939.00;5132176;27;20258;-71
2023/06/04 08:22:03;;;;;;;10.73;6.35;;;;;;;21.42;70.19;94943.81;5140521;27;20277;-72
2023/06/04 08:24:30;;;;;;;10.40;6.18;;;;;;;21.47;70.31;94939.88;5132209;27;20235;-70
2023/06/04 08:26:57;;;;;;;10.65;8.07;;;;;;;21.24;70.17;94949.25;5129698;27;20209;-70
2023/06/04 08:29:25;;;;;;;10.98;7.53;;;;;;;21.53;71.05;94943.84;5129200;27;20201;-70
2023/06/04 08:31:52;;;;;;;11.15;8.00;;;;;;;21.92;68.63;94943.91;5139994;27;20196;-70
2023/06/04 08:34:19;;;;;;;15.68;8.27;;;;;;;22.42;67.17;94944.72;5144832;27;20197;-71
2023/06/04 08:36:46;;;;;;;12.68;7.82;;;;;;;21.84;67.54;94947.84;5129291;27;20201;-71
2023/06/04 08:39:13;;;;;;;12.27;7.80;;;;;;;22.05;66.66;94947.88;5129654;27;20408;-70
2023/06/04 08:41:44;;;;;;;12.15;7.38;;;;;;;21.49;67.92;94965.06;5128089;27;20240;-70
2023/06/04 08:44:11;;;;;;;10.00;7.43;;;;;;;21.30;68.69;94973.69;5145010;27;20228;-70
2023/06/04 08:46:40;;;;;;;10.90;7.45;;;;;;;21.33;70.49;94965.41;5149369;27;20285;-70
2023/06/04 08:49:09;;;;;;;13.25;7.65;;;;;;;21.15;69.28;94968.09;5137600;27;20288;-70
2023/06/04 08:51:38;;;;;;;11.98;7.82;;;;;;;21.57;69.02;94966.69;5128548;27;20288;-70
2023/06/04 08:54:07;;;;;;;9.45;6.97;;;;;;;21.92;68.24;94972.28;5136691;27;20633;-72
2023/06/04 08:56:34;;;;;;;11.95;7.65;;;;;;;22.01;64.81;94976.66;5147885;27;20205;-70
2023/06/04 08:59:03;;;;;;;10.73;7.70;;;;;;;21.26;66.87;94977.22;5136869;27;20544;-70
2023/06/04 09:01:31;;;;;;;10.43;6.47;;;;;;;21.37;66.38;94984.72;5146756;27;20705;-70
2023/06/04 09:04:02;;;;;;;10.65;6.13;;;;;;;21.25;66.61;94972.09;5139355;27;20198;-69
2023/06/04 09:06:30;;;;;;;7.60;6.32;;;;;;;21.31;66.18;94981.56;5128423;27;20695;-70
2023/06/04 09:08:58;;;;;;;9.57;6.93;;;;;;;21.35;65.61;94984.31;5131750;27;20644;-69
2023/06/04 09:11:28;;;;;;;12.10;6.57;;;;;;;21.30;66.32;94987.47;5139165;27;20193;-71
2023/06/04 09:14:00;;;;;;;9.38;6.85;;;;;;;21.02;65.85;94980.63;5137461;27;20289;-75
2023/06/04 09:16:28;;;;;;;10.90;6.85;;;;;;;21.15;65.54;94990.13;5136164;27;20241;-71
2023/06/04 09:18:55;;;;;;;9.15;7.05;;;;;;;21.48;64.98;94985.56;5152881;27;20280;-70
2023/06/04 09:21:24;;;;;;;13.98;7.25;;;;;;;21.75;64.34;94984.06;5153020;27;20235;-70
2023/06/04 09:23:51;;;;;;;11.32;6.68;;;;;;;22.11;63.38;94984.97;5140317;27;20221;-70
2023/06/04 09:26:18;;;;;;;11.30;7.35;;;;;;;22.06;63.98;94979.03;5151548;27;20257;-70
2023/06/04 09:28:46;;;;;;;10.82;7.75;;;;;;;21.86;64.23;94987.66;5144294;27;20210;-70
2023/06/04 09:31:16;;;;;;;10.88;7.93;;;;;;;21.69;64.76;94980.13;5131766;27;20248;-72
2023/06/04 09:33:46;;;;;;;11.05;7.57;;;;;;;21.72;64.48;94984.88;5145860;27;20720;-71
2023/06/04 09:36:13;;;;;;;11.68;7.55;;;;;;;22.04;63.18;94982.19;5152751;27;20224;-72
2023/06/04 09:38:41;;;;;;;12.27;8.13;;;;;;;21.60;64.26;94982.44;5152418;27;20594;-72
2023/06/04 09:41:12;;;;;;;11.45;7.82;;;;;;;21.70;63.94;94987.22;5152561;27;20231;-73
2023/06/04 09:43:39;;;;;;;11.30;8.07;;;;;;;21.25;64.85;94997.69;5152781;27;20673;-73
2023/06/04 09:46:13;;;;;;;12.95;7.95;;;;;;;21.52;65.13;94994.63;5152997;27;20340;-73
2023/06/04 09:48:41;;;;;;;11.73;8.45;;;;;;;21.65;64.99;94984.81;5152296;27;20252;-72
2023/06/04 09:51:09;;;;;;;10.80;7.82;;;;;;;22.12;64.43;94977.47;5152903;27;20204;-73
2023/06/04 09:53:36;;;;;;;11.27;8.05;;;;;;;22.40;62.45;94985.78;5153112;27;20304;-74
2023/06/04 09:56:06;;;;;;;10.13;7.50;;;;;;;22.68;63.07;94969.19;5152635;27;20651;-72
2023/06/04 09:58:33;;;;;;;9.93;7.53;;;;;;;22.73;60.84;94975.47;5151975;27;20215;-73
2023/06/04 10:01:01;;;;;;;14.02;8.52;;;;;;;22.51;62.09;94974.72;5152246;27;20232;-71
2023/06/04 10:03:32;;;;;;;12.25;7.90;;;;;;;22.02;63.47;94981.00;5133329;27;20205;-70
2023/06/04 10:06:01;;;;;;;13.32;8.10;;;;;;;22.77;62.94;94977.09;5130922;27;20282;-71
2023/06/04 10:08:29;;;;;;;9.93;7.35;;;;;;;23.12;60.70;94975.41;5131958;27;20225;-70
2023/06/04 10:10:57;;;;;;;10.63;7.82;;;;;;;22.49;62.10;94964.06;5131665;27;20587;-70
2023/06/04 10:13:28;;;;;;;9.60;6.57;;;;;;;22.98;60.60;94954.94;5131112;27;20201;-71
2023/06/04 10:15:57;;;;;;;9.35;6.43;;;;;;;22.84;61.74;94956.94;5131687;27;20232;-70
2023/06/04 10:18:25;;;;;;;11.65;6.88;;;;;;;22.60;61.05;94967.59;5130563;27;20212;-70
2023/06/04 10:20:54;;;;;;;9.65;6.57;;;;;;;21.90;63.07;94965.56;5131087;27;20259;-70
2023/06/04 10:23:22;;;;;;;8.20;6.28;;;;;;;21.85;63.58;94961.25;5130864;27;20647;-70
2023/06/04 10:25:52;;;;;;;9.50;6.85;;;;;;;22.05;63.70;94960.91;5129752;27;20236;-71
2023/06/04 10:28:20;;;;;;;9.30;6.50;;;;;;;22.63;63.54;94964.06;5139523;27;20596;-70
2023/06/04 10:30:50;;;;;;;9.95;7.05;;;;;;;22.85;61.14;94961.28;5148741;27;20288;-72
2023/06/04 10:33:20;;;;;;;7.80;6.35;;;;;;;22.77;61.43;94966.03;5141733;27;20204;-71
2023/06/04 10:35:47;;;;;;;8.95;6.13;;;;;;;23.11;61.18;94966.34;5133774;27;20240;-71
2023/06/04 10:38:16;;;;;;;9.57;7.28;;;;;;;23.37;60.33;94965.84;5130818;27;20205;-71
2023/06/04 10:40:43;;;;;;;10.98;6.70;;;;;;;23.18;59.99;94968.31;5130494;27;20239;-69
2023/06/04 10:43:11;;;;;;;9.13;6.53;;;;;;;23.02;59.79;94968.75;5131057;27;20205;-70
2023/06/04 10:45:39;;;;;;;10.45;6.57;;;;;;;22.87;61.09;94958.91;5130665;27;20602;-70
2023/06/04 10:48:08;;;;;;;11.40;7.18;;;;;;;23.01;59.24;94967.16;5130633;27;20208;-70
2023/06/04 10:50:36;;;;;;;9.18;7.13;;;;;;;23.58;60.51;94959.47;5130803;27;20514;-70
2023/06/04 10:53:03;;;;;;;9.02;6.10;;;;;;;23.42;60.31;94966.63;5143954;27;20200;-71
2023/06/04 10:55:31;;;;;;;7.72;6.22;;;;;;;23.52;59.54;94949.22;5145522;27;20740;-70
2023/06/04 10:57:59;;;;;;;7.00;6.30;;;;;;;22.96;61.03;94964.81;5143727;27;20207;-70
2023/06/04 11:00:36;;;;;;;9.32;6.15;;;;;;;23.10;61.36;94958.47;5151482;27;20307;-71
2023/06/04 11:03:03;;;;;;;10.02;6.85;;;;;;;24.42;58.56;94951.03;5136144;27;20192;-69
2023/06/04 11:05:36;;;;;;;7.03;6.30;;;;;;;24.82;57.75;94952.25;5130489;27;20246;-72
2023/06/04 11:08:04;;;;;;;7.20;6.28;;;;;;;24.13;57.33;94949.66;5130833;27;20233;-70
2023/06/04 11:10:36;;;;;;;8.57;6.38;;;;;;;23.75;58.70;94963.34;5130527;27;20204;-73
2023/06/04 11:13:04;;;;;;;7.95;6.88;;;;;;;23.24;59.67;94967.47;5130563;27;20217;-73
2023/06/04 11:15:42;;;;;;;9.93;6.97;;;;;;;23.14;59.62;94956.47;5130238;27;20212;-72
2023/06/04 11:18:09;;;;;;;7.97;6.90;;;;;;;22.88;61.02;94960.47;5130337;27;20274;-71
2023/06/04 11:20:37;;;;;;;7.97;6.63;;;;;;;22.60;61.83;94962.06;5141974;27;20655;-72
2023/06/04 11:23:04;;;;;;;9.13;7.20;;;;;;;22.03;63.39;94975.09;5145243;27;20699;-70
2023/06/04 11:25:32;;;;;;;8.18;7.03;;;;;;;22.25;63.93;94964.88;5130345;27;20296;-70
2023/06/04 11:28:01;;;;;;;9.20;7.03;;;;;;;22.39;62.47;94966.84;5136306;27;20630;-69
2023/06/04 11:30:28;;;;;;;10.68;6.88;;;;;;;22.51;62.64;94958.94;5136133;27;20264;-69
2023/06/04 11:33:02;;;;;;;9.35;7.10;;;;;;;22.78;61.47;94955.78;5149688;27;20308;-70